Bernard A — TCWN3 — position and weather

sailwx.info

Track history (hours):
 
Tides and Currents Weather Stations Pressure Air Temp Water Temp Dewpoint Dewpoint Depression Visibility Wind Speed Wind Dir Waves Ship Positions

Bernard A

Last reported at 2015-Jul-03 17:34 UTC. Time now 2015-Jul-07 15:23 UTC.
Position N 41°17' E 029°32'.

Length 184 m; draft 7.9 m.

Type: Ship (hazmat cat A). MMSI: 271040008.

Date/timePositionNaut miles runAvg speedWind from/ knotsBaromVisibWave heightAir tempDewpointWater temp
2015-Jul-03 17:34N 41°17' E 029°32'1414.2
2015-Jul-03 16:33N 41°15' E 029°13'1711.7
2015-Jul-03 15:07N 41°01' E 028°60'6 9.4
2015-Jul-03 14:30N 40°56' E 028°58'1010.7
2015-Jul-03 13:31N 40°48' E 028°48'3 2.9
2015-Jul-03 12:33N 40°46' E 028°45'1 0.6
2015-Jul-03 11:33N 40°47' E 028°46'1 0.6
2015-Jul-03 10:31N 40°48' E 028°46'0 0.3
2015-Jul-03 09:33N 40°47' E 028°45'0 0.3
2015-Jul-03 08:33N 40°47' E 028°45'0 0.3
2015-Jul-03 07:33N 40°47' E 028°45'0 0.4
2015-Jul-03 06:33N 40°46' E 028°45'0 0.4
2015-Jul-03 05:23N 40°46' E 028°45'0 0.3
2015-Jul-03 04:33N 40°46' E 028°45'3 2.7
2015-Jul-03 03:32N 40°49' E 028°45'0 0.4
2015-Jul-03 02:30N 40°49' E 028°45'0 0.4
2015-Jul-03 01:32N 40°48' E 028°45'1 0.6
2015-Jul-03 00:31N 40°48' E 028°46'1 0.7
2015-Jul-02 23:33N 40°48' E 028°47'1 0.8
2015-Jul-02 22:33N 40°48' E 028°48'3 3.3
2015-Jul-02 21:32N 40°51' E 028°46'6 0.4
2015-Jul-02 07:15N 40°56' E 028°41'0 0.4
2015-Jul-02 06:28N 40°56' E 028°42'2 0.1
2015-Jul-01 10:24N 40°58' E 028°41'7 0.2
2015-Jun-30 00:33N 40°51' E 028°40'3210.6
2015-Jun-29 21:33N 40°25' E 029°05'0 0.3
2015-Jun-29 20:17N 40°25' E 029°05'0 0.0
2015-Jun-29 19:29N 40°25' E 029°05'0 0.0
2015-Jun-29 18:29N 40°25' E 029°05'0 0.0
2015-Jun-29 16:23N 40°25' E 029°05'0 0.0
2015-Jun-29 15:23N 40°25' E 029°05'0 0.0
2015-Jun-29 14:23N 40°25' E 029°05'0 0.0
2015-Jun-29 13:29N 40°25' E 029°05'0 0.0
2015-Jun-29 12:29N 40°25' E 029°05'0 0.0
2015-Jun-29 10:17N 40°25' E 029°05'0 0.0
2015-Jun-29 09:29N 40°25' E 029°05'0 0.0
2015-Jun-29 08:29N 40°25' E 029°05'0 0.0
2015-Jun-29 07:29N 40°25' E 029°05'0 0.0
2015-Jun-29 06:29N 40°25' E 029°05'0 0.0
2015-Jun-29 05:17N 40°25' E 029°05'0 0.0
2015-Jun-29 04:29N 40°25' E 029°05'0 0.0
2015-Jun-29 03:23N 40°25' E 029°05'0 0.0
2015-Jun-29 02:29N 40°25' E 029°05'0 0.0
2015-Jun-29 01:29N 40°25' E 029°05'17 8.8
2015-Jun-28 23:32N 40°32' E 028°45'1313.5
2015-Jun-28 22:32N 40°46' E 028°42'1211.9
2015-Jun-28 21:32N 40°58' E 028°41'0 0.0
2015-Jun-28 06:29N 40°58' E 028°40'1 0.2
2015-Jun-28 00:12N 40°57' E 028°40'1 0.1
2015-Jun-27 17:28N 40°56' E 028°40'1112.5
2015-Jun-27 16:33N 40°57' E 028°55'2211.1
2015-Jun-27 14:33N 41°16' E 029°09'  
Track history (hours):
 
Tides and Currents Weather Stations Pressure Air Temp Water Temp Dewpoint Dewpoint Depression Visibility Wind Speed Wind Dir Waves Ship Positions

Bernard A

Last reported at 2015-Jul-03 17:34 UTC. Time now 2015-Jul-07 15:23 UTC.
Position N 41°17' E 029°32'.

Length 184 m; draft 7.9 m.

Type: Ship (hazmat cat A). MMSI: 271040008.

Date/timePositionNaut miles runAvg speedWind from/ knotsBaromVisibWave heightAir tempDewpointWater temp
2015-Jul-03 17:34N 41°17' E 029°32'1414.2
2015-Jul-03 16:33N 41°15' E 029°13'1711.7
2015-Jul-03 15:07N 41°01' E 028°60'6 9.4
2015-Jul-03 14:30N 40°56' E 028°58'1010.7
2015-Jul-03 13:31N 40°48' E 028°48'3 2.9
2015-Jul-03 12:33N 40°46' E 028°45'1 0.6
2015-Jul-03 11:33N 40°47' E 028°46'1 0.6
2015-Jul-03 10:31N 40°48' E 028°46'0 0.3
2015-Jul-03 09:33N 40°47' E 028°45'0 0.3
2015-Jul-03 08:33N 40°47' E 028°45'0 0.3
2015-Jul-03 07:33N 40°47' E 028°45'0 0.4
2015-Jul-03 06:33N 40°46' E 028°45'0 0.4
2015-Jul-03 05:23N 40°46' E 028°45'0 0.3
2015-Jul-03 04:33N 40°46' E 028°45'3 2.7
2015-Jul-03 03:32N 40°49' E 028°45'0 0.4
2015-Jul-03 02:30N 40°49' E 028°45'0 0.4
2015-Jul-03 01:32N 40°48' E 028°45'1 0.6
2015-Jul-03 00:31N 40°48' E 028°46'1 0.7
2015-Jul-02 23:33N 40°48' E 028°47'1 0.8
2015-Jul-02 22:33N 40°48' E 028°48'3 3.3
2015-Jul-02 21:32N 40°51' E 028°46'6 0.4
2015-Jul-02 07:15N 40°56' E 028°41'0 0.4
2015-Jul-02 06:28N 40°56' E 028°42'2 0.1
2015-Jul-01 10:24N 40°58' E 028°41'7 0.2
2015-Jun-30 00:33N 40°51' E 028°40'3210.6
2015-Jun-29 21:33N 40°25' E 029°05'0 0.3
2015-Jun-29 20:17N 40°25' E 029°05'0 0.0
2015-Jun-29 19:29N 40°25' E 029°05'0 0.0
2015-Jun-29 18:29N 40°25' E 029°05'0 0.0
2015-Jun-29 16:23N 40°25' E 029°05'0 0.0
2015-Jun-29 15:23N 40°25' E 029°05'0 0.0
2015-Jun-29 14:23N 40°25' E 029°05'0 0.0
2015-Jun-29 13:29N 40°25' E 029°05'0 0.0
2015-Jun-29 12:29N 40°25' E 029°05'0 0.0
2015-Jun-29 10:17N 40°25' E 029°05'0 0.0
2015-Jun-29 09:29N 40°25' E 029°05'0 0.0
2015-Jun-29 08:29N 40°25' E 029°05'0 0.0
2015-Jun-29 07:29N 40°25' E 029°05'0 0.0
2015-Jun-29 06:29N 40°25' E 029°05'0 0.0
2015-Jun-29 05:17N 40°25' E 029°05'0 0.0
2015-Jun-29 04:29N 40°25' E 029°05'0 0.0
2015-Jun-29 03:23N 40°25' E 029°05'0 0.0
2015-Jun-29 02:29N 40°25' E 029°05'0 0.0
2015-Jun-29 01:29N 40°25' E 029°05'17 8.8
2015-Jun-28 23:32N 40°32' E 028°45'1313.5
2015-Jun-28 22:32N 40°46' E 028°42'1211.9
2015-Jun-28 21:32N 40°58' E 028°41'0 0.0
2015-Jun-28 06:29N 40°58' E 028°40'1 0.2
2015-Jun-28 00:12N 40°57' E 028°40'1 0.1
2015-Jun-27 17:28N 40°56' E 028°40'1112.5
2015-Jun-27 16:33N 40°57' E 028°55'2211.1
2015-Jun-27 14:33N 41°16' E 029°09'  

Dump ship's entire track history